sensor_id;sensor_type;location;lat;lon;timestamp;P1;durP1;ratioP1;P2;durP2;ratioP2
23169;SDS011;11753;43.144;24.714;2023-04-27T00:00:51;2.05;;;0.95;;
23169;SDS011;11753;43.144;24.714;2023-04-27T00:01:52;2.28;;;1.02;;
23169;SDS011;11753;43.144;24.714;2023-04-27T00:02:53;1.63;;;1.10;;
23169;SDS011;11753;43.144;24.714;2023-04-27T00:03:54;1.38;;;0.90;;
23169;SDS011;11753;43.144;24.714;2023-04-27T00:04:56;2.15;;;1.00;;
23169;SDS011;11753;43.144;24.714;2023-04-27T00:05:57;1.27;;;0.70;;
23169;SDS011;11753;43.144;24.714;2023-04-27T00:06:58;2.13;;;1.13;;
23169;SDS011;11753;43.144;24.714;2023-04-27T00:07:59;2.28;;;1.10;;
23169;SDS011;11753;43.144;24.714;2023-04-27T00:09:02;1.48;;;0.80;;
23169;SDS011;11753;43.144;24.714;2023-04-27T00:10:03;1.90;;;1.00;;
23169;SDS011;11753;43.144;24.714;2023-04-27T00:11:05;1.60;;;0.90;;
23169;SDS011;11753;43.144;24.714;2023-04-27T00:12:06;1.55;;;1.05;;
23169;SDS011;11753;43.144;24.714;2023-04-27T00:13:06;1.67;;;0.88;;
23169;SDS011;11753;43.144;24.714;2023-04-27T00:14:07;1.30;;;0.80;;
23169;SDS011;11753;43.144;24.714;2023-04-27T00:15:08;2.28;;;1.38;;
23169;SDS011;11753;43.144;24.714;2023-04-27T00:16:09;2.92;;;1.27;;
23169;SDS011;11753;43.144;24.714;2023-04-27T00:17:11;1.80;;;1.00;;
23169;SDS011;11753;43.144;24.714;2023-04-27T00:18:12;4.40;;;1.13;;
23169;SDS011;11753;43.144;24.714;2023-04-27T00:19:13;2.08;;;1.00;;
23169;SDS011;11753;43.144;24.714;2023-04-27T00:20:14;2.22;;;1.20;;
23169;SDS011;11753;43.144;24.714;2023-04-27T00:21:15;1.98;;;1.15;;
23169;SDS011;11753;43.144;24.714;2023-04-27T00:22:16;2.80;;;1.70;;
23169;SDS011;11753;43.144;24.714;2023-04-27T00:23:17;3.28;;;1.90;;
23169;SDS011;11753;43.144;24.714;2023-04-27T00:24:18;2.63;;;1.67;;
23169;SDS011;11753;43.144;24.714;2023-04-27T00:25:19;2.88;;;1.83;;
23169;SDS011;11753;43.144;24.714;2023-04-27T00:26:20;4.53;;;2.00;;
23169;SDS011;11753;43.144;24.714;2023-04-27T00:27:21;2.80;;;1.77;;
23169;SDS011;11753;43.144;24.714;2023-04-27T00:28:22;4.35;;;2.05;;
23169;SDS011;11753;43.144;24.714;2023-04-27T00:29:22;5.95;;;1.50;;
23169;SDS011;11753;43.144;24.714;2023-04-27T00:30:23;4.30;;;1.52;;
23169;SDS011;11753;43.144;24.714;2023-04-27T00:31:24;2.70;;;1.80;;
23169;SDS011;11753;43.144;24.714;2023-04-27T00:32:25;2.58;;;1.77;;
23169;SDS011;11753;43.144;24.714;2023-04-27T00:33:26;3.58;;;1.33;;
23169;SDS011;11753;43.144;24.714;2023-04-27T00:34:27;3.22;;;1.60;;
23169;SDS011;11753;43.144;24.714;2023-04-27T00:35:28;3.17;;;1.80;;
23169;SDS011;11753;43.144;24.714;2023-04-27T00:36:29;2.13;;;1.30;;
23169;SDS011;11753;43.144;24.714;2023-04-27T00:37:30;3.08;;;1.63;;
23169;SDS011;11753;43.144;24.714;2023-04-27T00:38:31;2.30;;;1.58;;
23169;SDS011;11753;43.144;24.714;2023-04-27T00:39:33;2.50;;;1.67;;
23169;SDS011;11753;43.144;24.714;2023-04-27T00:40:35;4.05;;;1.77;;
23169;SDS011;11753;43.144;24.714;2023-04-27T00:41:36;3.13;;;1.83;;
23169;SDS011;11753;43.144;24.714;2023-04-27T00:42:38;2.88;;;1.60;;
23169;SDS011;11753;43.144;24.714;2023-04-27T00:43:42;3.97;;;1.80;;
23169;SDS011;11753;43.144;24.714;2023-04-27T00:44:46;3.53;;;1.67;;
23169;SDS011;11753;43.144;24.714;2023-04-27T00:45:47;1.75;;;1.20;;
23169;SDS011;11753;43.144;24.714;2023-04-27T00:46:48;3.03;;;1.65;;
23169;SDS011;11753;43.144;24.714;2023-04-27T00:47:49;2.40;;;1.30;;
23169;SDS011;11753;43.144;24.714;2023-04-27T00:48:50;1.63;;;0.93;;
23169;SDS011;11753;43.144;24.714;2023-04-27T00:49:51;2.00;;;1.20;;
23169;SDS011;11753;43.144;24.714;2023-04-27T00:50:52;2.00;;;1.08;;
23169;SDS011;11753;43.144;24.714;2023-04-27T00:51:54;2.28;;;1.17;;
23169;SDS011;11753;43.144;24.714;2023-04-27T00:52:56;5.75;;;1.50;;
23169;SDS011;11753;43.144;24.714;2023-04-27T00:53:57;1.48;;;0.90;;
23169;SDS011;11753;43.144;24.714;2023-04-27T00:54:58;1.88;;;1.02;;
23169;SDS011;11753;43.144;24.714;2023-04-27T00:56:06;1.65;;;0.95;;
23169;SDS011;11753;43.144;24.714;2023-04-27T00:57:07;1.48;;;1.00;;
23169;SDS011;11753;43.144;24.714;2023-04-27T00:58:08;1.15;;;0.80;;
23169;SDS011;11753;43.144;24.714;2023-04-27T00:59:09;1.75;;;1.10;;
23169;SDS011;11753;43.144;24.714;2023-04-27T01:00:10;1.52;;;0.90;;
23169;SDS011;11753;43.144;24.714;2023-04-27T01:01:11;3.00;;;1.23;;
23169;SDS011;11753;43.144;24.714;2023-04-27T01:02:12;2.35;;;1.20;;
23169;SDS011;11753;43.144;24.714;2023-04-27T01:03:13;1.77;;;0.95;;
23169;SDS011;11753;43.144;24.714;2023-04-27T01:04:14;1.50;;;1.00;;
23169;SDS011;11753;43.144;24.714;2023-04-27T01:05:17;1.63;;;0.95;;
23169;SDS011;11753;43.144;24.714;2023-04-27T01:06:18;2.10;;;1.20;;
23169;SDS011;11753;43.144;24.714;2023-04-27T01:07:25;2.47;;;1.13;;
23169;SDS011;11753;43.144;24.714;2023-04-27T01:08:29;2.40;;;1.40;;
23169;SDS011;11753;43.144;24.714;2023-04-27T01:09:30;3.15;;;1.98;;
23169;SDS011;11753;43.144;24.714;2023-04-27T01:10:31;2.65;;;1.63;;
23169;SDS011;11753;43.144;24.714;2023-04-27T01:11:31;2.70;;;1.50;;
23169;SDS011;11753;43.144;24.714;2023-04-27T01:12:32;2.25;;;1.45;;
23169;SDS011;11753;43.144;24.714;2023-04-27T01:13:33;1.63;;;1.08;;
23169;SDS011;11753;43.144;24.714;2023-04-27T01:14:34;1.98;;;1.08;;
23169;SDS011;11753;43.144;24.714;2023-04-27T01:15:36;2.30;;;1.55;;
23169;SDS011;11753;43.144;24.714;2023-04-27T01:16:40;2.42;;;1.50;;
23169;SDS011;11753;43.144;24.714;2023-04-27T01:17:41;2.85;;;1.50;;
23169;SDS011;11753;43.144;24.714;2023-04-27T01:18:42;2.25;;;1.40;;
23169;SDS011;11753;43.144;24.714;2023-04-27T01:19:43;2.40;;;1.63;;
23169;SDS011;11753;43.144;24.714;2023-04-27T01:20:44;2.90;;;1.73;;
23169;SDS011;11753;43.144;24.714;2023-04-27T01:21:45;2.97;;;1.42;;
23169;SDS011;11753;43.144;24.714;2023-04-27T01:22:46;2.72;;;1.60;;
23169;SDS011;11753;43.144;24.714;2023-04-27T01:23:46;2.55;;;1.67;;
23169;SDS011;11753;43.144;24.714;2023-04-27T01:24:47;3.30;;;1.88;;
23169;SDS011;11753;43.144;24.714;2023-04-27T01:25:48;3.10;;;2.03;;
23169;SDS011;11753;43.144;24.714;2023-04-27T01:26:49;3.53;;;1.70;;
23169;SDS011;11753;43.144;24.714;2023-04-27T01:27:52;2.85;;;1.92;;
23169;SDS011;11753;43.144;24.714;2023-04-27T01:28:53;2.47;;;1.85;;
23169;SDS011;11753;43.144;24.714;2023-04-27T01:29:54;2.70;;;1.98;;
23169;SDS011;11753;43.144;24.714;2023-04-27T01:30:55;3.42;;;1.60;;
23169;SDS011;11753;43.144;24.714;2023-04-27T01:31:56;2.72;;;1.80;;
23169;SDS011;11753;43.144;24.714;2023-04-27T01:32:57;2.80;;;1.60;;
23169;SDS011;11753;43.144;24.714;2023-04-27T01:33:58;3.85;;;2.10;;
23169;SDS011;11753;43.144;24.714;2023-04-27T01:34:59;2.58;;;1.85;;
23169;SDS011;11753;43.144;24.714;2023-04-27T01:36:00;2.38;;;1.60;;
23169;SDS011;11753;43.144;24.714;2023-04-27T01:37:00;3.20;;;1.83;;
23169;SDS011;11753;43.144;24.714;2023-04-27T01:38:01;3.35;;;1.70;;
23169;SDS011;11753;43.144;24.714;2023-04-27T01:39:02;3.65;;;1.65;;
23169;SDS011;11753;43.144;24.714;2023-04-27T01:40:08;2.30;;;1.45;;
23169;SDS011;11753;43.144;24.714;2023-04-27T01:41:09;3.92;;;1.63;;
23169;SDS011;11753;43.144;24.714;2023-04-27T01:42:10;3.75;;;2.15;;
23169;SDS011;11753;43.144;24.714;2023-04-27T01:43:11;3.22;;;2.08;;
23169;SDS011;11753;43.144;24.714;2023-04-27T01:44:12;2.75;;;2.15;;
23169;SDS011;11753;43.144;24.714;2023-04-27T01:45:13;3.10;;;1.90;;
23169;SDS011;11753;43.144;24.714;2023-04-27T01:46:14;2.65;;;1.65;;
23169;SDS011;11753;43.144;24.714;2023-04-27T01:47:15;3.42;;;1.98;;
23169;SDS011;11753;43.144;24.714;2023-04-27T01:48:18;4.53;;;2.15;;
23169;SDS011;11753;43.144;24.714;2023-04-27T01:49:20;3.25;;;2.13;;
23169;SDS011;11753;43.144;24.714;2023-04-27T01:50:21;3.13;;;2.10;;
23169;SDS011;11753;43.144;24.714;2023-04-27T01:51:21;4.22;;;2.30;;
23169;SDS011;11753;43.144;24.714;2023-04-27T01:52:24;2.75;;;2.00;;
23169;SDS011;11753;43.144;24.714;2023-04-27T01:53:25;3.35;;;2.00;;
23169;SDS011;11753;43.144;24.714;2023-04-27T01:54:27;3.08;;;2.20;;
23169;SDS011;11753;43.144;24.714;2023-04-27T01:55:28;6.20;;;2.53;;
23169;SDS011;11753;43.144;24.714;2023-04-27T01:56:29;4.25;;;2.90;;
23169;SDS011;11753;43.144;24.714;2023-04-27T01:57:29;5.47;;;3.03;;
23169;SDS011;11753;43.144;24.714;2023-04-27T01:58:31;5.10;;;3.40;;
23169;SDS011;11753;43.144;24.714;2023-04-27T01:59:31;5.60;;;3.83;;
23169;SDS011;11753;43.144;24.714;2023-04-27T02:00:32;5.88;;;3.95;;
23169;SDS011;11753;43.144;24.714;2023-04-27T02:01:33;9.40;;;4.63;;
23169;SDS011;11753;43.144;24.714;2023-04-27T02:02:34;9.48;;;4.57;;
23169;SDS011;11753;43.144;24.714;2023-04-27T02:03:35;8.95;;;4.97;;
23169;SDS011;11753;43.144;24.714;2023-04-27T02:04:35;8.30;;;4.65;;
23169;SDS011;11753;43.144;24.714;2023-04-27T02:05:36;10.00;;;4.88;;
23169;SDS011;11753;43.144;24.714;2023-04-27T02:06:37;9.65;;;5.70;;
23169;SDS011;11753;43.144;24.714;2023-04-27T02:07:38;12.70;;;5.60;;
23169;SDS011;11753;43.144;24.714;2023-04-27T02:08:39;10.75;;;5.15;;
23169;SDS011;11753;43.144;24.714;2023-04-27T02:09:40;8.25;;;5.28;;
23169;SDS011;11753;43.144;24.714;2023-04-27T02:10:41;11.30;;;5.28;;
23169;SDS011;11753;43.144;24.714;2023-04-27T02:11:42;7.40;;;4.35;;
23169;SDS011;11753;43.144;24.714;2023-04-27T02:12:43;8.30;;;4.80;;
23169;SDS011;11753;43.144;24.714;2023-04-27T02:13:44;11.30;;;4.90;;
23169;SDS011;11753;43.144;24.714;2023-04-27T02:14:45;9.15;;;5.38;;
23169;SDS011;11753;43.144;24.714;2023-04-27T02:15:46;9.98;;;4.70;;
23169;SDS011;11753;43.144;24.714;2023-04-27T02:16:46;8.45;;;5.07;;
23169;SDS011;11753;43.144;24.714;2023-04-27T02:17:47;8.82;;;4.80;;
23169;SDS011;11753;43.144;24.714;2023-04-27T02:18:47;7.15;;;5.00;;
23169;SDS011;11753;43.144;24.714;2023-04-27T02:19:48;7.85;;;4.38;;
23169;SDS011;11753;43.144;24.714;2023-04-27T02:20:49;10.48;;;5.18;;
23169;SDS011;11753;43.144;24.714;2023-04-27T02:21:50;11.07;;;4.60;;
23169;SDS011;11753;43.144;24.714;2023-04-27T02:22:51;8.88;;;4.80;;
23169;SDS011;11753;43.144;24.714;2023-04-27T02:23:52;10.75;;;4.35;;
23169;SDS011;11753;43.144;24.714;2023-04-27T02:24:53;6.88;;;4.93;;
23169;SDS011;11753;43.144;24.714;2023-04-27T02:25:54;11.15;;;5.00;;
23169;SDS011;11753;43.144;24.714;2023-04-27T02:26:55;8.02;;;5.50;;
23169;SDS011;11753;43.144;24.714;2023-04-27T02:27:56;7.93;;;4.43;;
23169;SDS011;11753;43.144;24.714;2023-04-27T02:28:57;10.85;;;5.00;;
23169;SDS011;11753;43.144;24.714;2023-04-27T02:29:57;10.43;;;4.97;;
23169;SDS011;11753;43.144;24.714;2023-04-27T02:30:58;8.48;;;4.88;;
23169;SDS011;11753;43.144;24.714;2023-04-27T02:31:59;8.13;;;4.70;;
23169;SDS011;11753;43.144;24.714;2023-04-27T02:32:59;9.13;;;5.32;;
23169;SDS011;11753;43.144;24.714;2023-04-27T02:34:03;8.70;;;4.80;;
23169;SDS011;11753;43.144;24.714;2023-04-27T02:35:04;9.93;;;5.57;;
23169;SDS011;11753;43.144;24.714;2023-04-27T02:36:07;8.88;;;5.20;;
23169;SDS011;11753;43.144;24.714;2023-04-27T02:37:08;8.15;;;5.13;;
23169;SDS011;11753;43.144;24.714;2023-04-27T02:38:09;10.60;;;5.20;;
23169;SDS011;11753;43.144;24.714;2023-04-27T02:39:10;9.73;;;5.25;;
23169;SDS011;11753;43.144;24.714;2023-04-27T02:40:12;10.25;;;5.18;;
23169;SDS011;11753;43.144;24.714;2023-04-27T02:41:13;12.75;;;5.60;;
23169;SDS011;11753;43.144;24.714;2023-04-27T02:42:13;11.82;;;4.65;;
23169;SDS011;11753;43.144;24.714;2023-04-27T02:43:15;9.80;;;4.70;;
23169;SDS011;11753;43.144;24.714;2023-04-27T02:44:16;10.75;;;5.30;;
23169;SDS011;11753;43.144;24.714;2023-04-27T02:45:16;8.77;;;5.40;;
23169;SDS011;11753;43.144;24.714;2023-04-27T02:46:17;10.73;;;5.53;;
23169;SDS011;11753;43.144;24.714;2023-04-27T02:47:18;10.18;;;5.35;;
23169;SDS011;11753;43.144;24.714;2023-04-27T02:48:19;11.68;;;5.65;;
23169;SDS011;11753;43.144;24.714;2023-04-27T02:49:20;15.00;;;5.35;;
23169;SDS011;11753;43.144;24.714;2023-04-27T02:50:21;8.68;;;4.85;;
23169;SDS011;11753;43.144;24.714;2023-04-27T02:51:22;10.40;;;5.63;;
23169;SDS011;11753;43.144;24.714;2023-04-27T02:52:23;9.18;;;5.10;;
23169;SDS011;11753;43.144;24.714;2023-04-27T02:53:24;9.98;;;5.28;;
23169;SDS011;11753;43.144;24.714;2023-04-27T02:54:25;12.18;;;5.55;;
23169;SDS011;11753;43.144;24.714;2023-04-27T02:55:26;9.55;;;5.13;;
23169;SDS011;11753;43.144;24.714;2023-04-27T02:56:29;8.50;;;4.78;;
23169;SDS011;11753;43.144;24.714;2023-04-27T02:57:30;10.68;;;5.95;;
23169;SDS011;11753;43.144;24.714;2023-04-27T02:58:31;10.85;;;5.78;;
23169;SDS011;11753;43.144;24.714;2023-04-27T02:59:32;9.77;;;5.45;;
23169;SDS011;11753;43.144;24.714;2023-04-27T03:00:32;7.72;;;5.07;;
23169;SDS011;11753;43.144;24.714;2023-04-27T03:01:33;8.52;;;5.38;;
23169;SDS011;11753;43.144;24.714;2023-04-27T03:02:34;9.73;;;5.45;;
23169;SDS011;11753;43.144;24.714;2023-04-27T03:03:35;9.30;;;5.10;;
23169;SDS011;11753;43.144;24.714;2023-04-27T03:04:36;9.60;;;5.07;;
23169;SDS011;11753;43.144;24.714;2023-04-27T03:05:37;8.73;;;5.22;;
23169;SDS011;11753;43.144;24.714;2023-04-27T03:06:39;9.77;;;4.75;;
23169;SDS011;11753;43.144;24.714;2023-04-27T03:07:40;9.88;;;5.63;;
23169;SDS011;11753;43.144;24.714;2023-04-27T03:08:41;11.70;;;5.82;;
23169;SDS011;11753;43.144;24.714;2023-04-27T03:09:42;11.25;;;6.13;;
23169;SDS011;11753;43.144;24.714;2023-04-27T03:10:43;10.45;;;6.30;;
23169;SDS011;11753;43.144;24.714;2023-04-27T03:11:44;8.75;;;5.28;;
23169;SDS011;11753;43.144;24.714;2023-04-27T03:12:44;14.18;;;6.20;;
23169;SDS011;11753;43.144;24.714;2023-04-27T03:13:45;11.32;;;5.80;;
23169;SDS011;11753;43.144;24.714;2023-04-27T03:14:45;9.35;;;5.53;;
23169;SDS011;11753;43.144;24.714;2023-04-27T03:15:46;12.32;;;5.93;;
23169;SDS011;11753;43.144;24.714;2023-04-27T03:16:47;8.63;;;4.90;;
23169;SDS011;11753;43.144;24.714;2023-04-27T03:17:48;8.63;;;4.85;;
23169;SDS011;11753;43.144;24.714;2023-04-27T03:18:49;7.35;;;4.97;;
23169;SDS011;11753;43.144;24.714;2023-04-27T03:19:50;9.48;;;5.75;;
23169;SDS011;11753;43.144;24.714;2023-04-27T03:20:51;9.30;;;5.40;;
23169;SDS011;11753;43.144;24.714;2023-04-27T03:21:52;10.13;;;5.82;;
23169;SDS011;11753;43.144;24.714;2023-04-27T03:22:53;8.45;;;6.05;;
23169;SDS011;11753;43.144;24.714;2023-04-27T03:23:54;10.45;;;6.30;;
23169;SDS011;11753;43.144;24.714;2023-04-27T03:24:55;10.20;;;6.00;;
23169;SDS011;11753;43.144;24.714;2023-04-27T03:25:55;10.55;;;6.15;;
23169;SDS011;11753;43.144;24.714;2023-04-27T03:26:56;10.30;;;5.57;;
23169;SDS011;11753;43.144;24.714;2023-04-27T03:27:57;9.65;;;4.95;;
23169;SDS011;11753;43.144;24.714;2023-04-27T03:28:58;10.38;;;5.50;;
23169;SDS011;11753;43.144;24.714;2023-04-27T03:30:00;11.52;;;5.38;;
23169;SDS011;11753;43.144;24.714;2023-04-27T03:31:04;10.98;;;5.35;;
23169;SDS011;11753;43.144;24.714;2023-04-27T03:32:06;7.60;;;4.43;;
23169;SDS011;11753;43.144;24.714;2023-04-27T03:33:07;6.32;;;4.80;;
23169;SDS011;11753;43.144;24.714;2023-04-27T03:34:08;8.55;;;4.80;;
23169;SDS011;11753;43.144;24.714;2023-04-27T03:35:09;8.18;;;4.88;;
23169;SDS011;11753;43.144;24.714;2023-04-27T03:36:10;7.57;;;5.15;;
23169;SDS011;11753;43.144;24.714;2023-04-27T03:37:11;8.45;;;4.95;;
23169;SDS011;11753;43.144;24.714;2023-04-27T03:38:12;8.50;;;5.20;;
23169;SDS011;11753;43.144;24.714;2023-04-27T03:39:13;6.85;;;4.97;;
23169;SDS011;11753;43.144;24.714;2023-04-27T03:40:13;9.90;;;5.15;;
23169;SDS011;11753;43.144;24.714;2023-04-27T03:41:14;7.20;;;4.80;;
23169;SDS011;11753;43.144;24.714;2023-04-27T03:42:15;8.38;;;5.20;;
23169;SDS011;11753;43.144;24.714;2023-04-27T03:43:16;8.43;;;6.40;;
23169;SDS011;11753;43.144;24.714;2023-04-27T03:44:18;9.40;;;5.35;;
23169;SDS011;11753;43.144;24.714;2023-04-27T03:45:19;8.90;;;5.95;;
23169;SDS011;11753;43.144;24.714;2023-04-27T03:46:21;8.88;;;5.85;;
23169;SDS011;11753;43.144;24.714;2023-04-27T03:47:22;7.82;;;5.63;;
23169;SDS011;11753;43.144;24.714;2023-04-27T03:48:23;12.25;;;6.47;;
23169;SDS011;11753;43.144;24.714;2023-04-27T03:49:25;10.15;;;5.60;;
23169;SDS011;11753;43.144;24.714;2023-04-27T03:50:26;8.45;;;5.53;;
23169;SDS011;11753;43.144;24.714;2023-04-27T03:51:26;9.90;;;5.82;;
23169;SDS011;11753;43.144;24.714;2023-04-27T03:52:27;9.85;;;5.35;;
23169;SDS011;11753;43.144;24.714;2023-04-27T03:53:28;10.90;;;5.53;;
23169;SDS011;11753;43.144;24.714;2023-04-27T03:54:33;8.85;;;5.72;;
23169;SDS011;11753;43.144;24.714;2023-04-27T03:55:37;9.80;;;5.90;;
23169;SDS011;11753;43.144;24.714;2023-04-27T03:56:39;11.18;;;6.28;;
23169;SDS011;11753;43.144;24.714;2023-04-27T03:57:40;9.75;;;5.65;;
23169;SDS011;11753;43.144;24.714;2023-04-27T03:58:41;12.20;;;6.03;;
23169;SDS011;11753;43.144;24.714;2023-04-27T03:59:42;10.30;;;5.93;;
23169;SDS011;11753;43.144;24.714;2023-04-27T04:00:42;8.95;;;5.90;;
23169;SDS011;11753;43.144;24.714;2023-04-27T04:01:43;12.02;;;5.60;;
23169;SDS011;11753;43.144;24.714;2023-04-27T04:02:44;8.63;;;5.40;;
23169;SDS011;11753;43.144;24.714;2023-04-27T04:03:44;11.43;;;7.05;;
23169;SDS011;11753;43.144;24.714;2023-04-27T04:04:46;8.50;;;6.40;;
23169;SDS011;11753;43.144;24.714;2023-04-27T04:05:47;12.75;;;5.60;;
23169;SDS011;11753;43.144;24.714;2023-04-27T04:06:48;7.35;;;4.30;;
23169;SDS011;11753;43.144;24.714;2023-04-27T04:07:49;7.70;;;4.32;;
23169;SDS011;11753;43.144;24.714;2023-04-27T04:08:49;7.15;;;4.03;;
23169;SDS011;11753;43.144;24.714;2023-04-27T04:09:50;6.15;;;4.50;;
23169;SDS011;11753;43.144;24.714;2023-04-27T04:10:51;7.55;;;4.22;;
23169;SDS011;11753;43.144;24.714;2023-04-27T04:11:52;8.02;;;4.10;;
23169;SDS011;11753;43.144;24.714;2023-04-27T04:12:53;7.50;;;4.65;;
23169;SDS011;11753;43.144;24.714;2023-04-27T04:13:54;9.38;;;4.60;;
23169;SDS011;11753;43.144;24.714;2023-04-27T04:14:55;5.93;;;4.10;;
23169;SDS011;11753;43.144;24.714;2023-04-27T04:16:05;7.43;;;4.45;;
23169;SDS011;11753;43.144;24.714;2023-04-27T04:17:10;8.98;;;4.22;;
23169;SDS011;11753;43.144;24.714;2023-04-27T04:18:10;6.32;;;3.78;;
23169;SDS011;11753;43.144;24.714;2023-04-27T04:19:11;9.52;;;4.20;;
23169;SDS011;11753;43.144;24.714;2023-04-27T04:20:12;6.78;;;3.90;;
23169;SDS011;11753;43.144;24.714;2023-04-27T04:21:13;6.93;;;4.43;;
23169;SDS011;11753;43.144;24.714;2023-04-27T04:22:13;8.63;;;3.83;;
23169;SDS011;11753;43.144;24.714;2023-04-27T04:23:14;7.07;;;3.78;;
23169;SDS011;11753;43.144;24.714;2023-04-27T04:24:15;9.15;;;4.30;;
23169;SDS011;11753;43.144;24.714;2023-04-27T04:25:16;8.98;;;4.15;;
23169;SDS011;11753;43.144;24.714;2023-04-27T04:26:18;7.25;;;3.90;;
23169;SDS011;11753;43.144;24.714;2023-04-27T04:27:20;7.57;;;4.05;;
23169;SDS011;11753;43.144;24.714;2023-04-27T04:28:21;7.57;;;3.50;;
23169;SDS011;11753;43.144;24.714;2023-04-27T04:29:23;8.48;;;4.15;;
23169;SDS011;11753;43.144;24.714;2023-04-27T04:30:24;7.35;;;3.80;;
23169;SDS011;11753;43.144;24.714;2023-04-27T04:31:26;9.05;;;3.75;;
23169;SDS011;11753;43.144;24.714;2023-04-27T04:32:27;7.40;;;3.58;;
23169;SDS011;11753;43.144;24.714;2023-04-27T04:33:29;11.18;;;4.30;;
23169;SDS011;11753;43.144;24.714;2023-04-27T04:34:30;10.15;;;5.78;;
23169;SDS011;11753;43.144;24.714;2023-04-27T04:35:31;22.60;;;13.68;;
23169;SDS011;11753;43.144;24.714;2023-04-27T04:36:35;21.80;;;14.32;;
23169;SDS011;11753;43.144;24.714;2023-04-27T04:37:37;18.52;;;11.13;;
23169;SDS011;11753;43.144;24.714;2023-04-27T04:38:38;9.13;;;4.90;;
23169;SDS011;11753;43.144;24.714;2023-04-27T04:39:40;7.60;;;4.72;;
23169;SDS011;11753;43.144;24.714;2023-04-27T04:40:41;7.88;;;4.35;;
23169;SDS011;11753;43.144;24.714;2023-04-27T04:41:41;7.78;;;4.50;;
23169;SDS011;11753;43.144;24.714;2023-04-27T04:42:43;9.65;;;6.25;;
23169;SDS011;11753;43.144;24.714;2023-04-27T04:43:44;17.00;;;10.45;;
23169;SDS011;11753;43.144;24.714;2023-04-27T04:44:45;20.05;;;12.65;;
23169;SDS011;11753;43.144;24.714;2023-04-27T04:45:46;24.13;;;16.55;;
23169;SDS011;11753;43.144;24.714;2023-04-27T04:46:47;21.63;;;13.65;;
23169;SDS011;11753;43.144;24.714;2023-04-27T04:47:48;16.55;;;10.10;;
23169;SDS011;11753;43.144;24.714;2023-04-27T04:48:49;12.90;;;8.02;;
23169;SDS011;11753;43.144;24.714;2023-04-27T04:49:50;11.02;;;5.70;;
23169;SDS011;11753;43.144;24.714;2023-04-27T04:50:51;142.50;;;68.47;;
23169;SDS011;11753;43.144;24.714;2023-04-27T04:51:52;49.88;;;25.73;;
23169;SDS011;11753;43.144;24.714;2023-04-27T04:52:55;25.73;;;14.52;;
23169;SDS011;11753;43.144;24.714;2023-04-27T04:53:57;18.13;;;9.68;;
23169;SDS011;11753;43.144;24.714;2023-04-27T04:54:57;132.38;;;63.80;;
23169;SDS011;11753;43.144;24.714;2023-04-27T04:56:06;128.85;;;64.00;;
23169;SDS011;11753;43.144;24.714;2023-04-27T04:57:16;90.40;;;44.20;;
23169;SDS011;11753;43.144;24.714;2023-04-27T04:58:18;57.75;;;29.23;;
23169;SDS011;11753;43.144;24.714;2023-04-27T04:59:18;22.23;;;11.93;;
23169;SDS011;11753;43.144;24.714;2023-04-27T05:00:19;10.68;;;5.78;;
23169;SDS011;11753;43.144;24.714;2023-04-27T05:01:20;14.55;;;7.47;;
23169;SDS011;11753;43.144;24.714;2023-04-27T05:02:22;8.55;;;4.43;;
23169;SDS011;11753;43.144;24.714;2023-04-27T05:03:23;8.45;;;4.43;;
23169;SDS011;11753;43.144;24.714;2023-04-27T05:04:24;9.68;;;5.40;;
23169;SDS011;11753;43.144;24.714;2023-04-27T05:05:27;11.90;;;4.88;;
23169;SDS011;11753;43.144;24.714;2023-04-27T05:06:29;9.57;;;4.43;;
23169;SDS011;11753;43.144;24.714;2023-04-27T05:07:31;10.75;;;5.53;;
23169;SDS011;11753;43.144;24.714;2023-04-27T05:08:32;7.97;;;4.25;;
23169;SDS011;11753;43.144;24.714;2023-04-27T05:09:33;5.63;;;3.50;;
23169;SDS011;11753;43.144;24.714;2023-04-27T05:10:34;11.95;;;7.20;;
23169;SDS011;11753;43.144;24.714;2023-04-27T05:11:35;10.52;;;5.68;;
23169;SDS011;11753;43.144;24.714;2023-04-27T05:12:36;9.80;;;4.93;;
23169;SDS011;11753;43.144;24.714;2023-04-27T05:13:38;10.93;;;4.63;;
23169;SDS011;11753;43.144;24.714;2023-04-27T05:14:40;8.52;;;4.50;;
23169;SDS011;11753;43.144;24.714;2023-04-27T05:15:41;10.43;;;4.72;;
23169;SDS011;11753;43.144;24.714;2023-04-27T05:16:42;6.68;;;4.32;;
23169;SDS011;11753;43.144;24.714;2023-04-27T05:17:42;8.07;;;4.10;;
23169;SDS011;11753;43.144;24.714;2023-04-27T05:18:43;5.82;;;3.55;;
23169;SDS011;11753;43.144;24.714;2023-04-27T05:19:44;8.38;;;3.72;;
23169;SDS011;11753;43.144;24.714;2023-04-27T05:20:45;8.27;;;4.03;;
23169;SDS011;11753;43.144;24.714;2023-04-27T05:21:46;13.15;;;5.80;;
23169;SDS011;11753;43.144;24.714;2023-04-27T05:22:47;8.90;;;4.03;;
23169;SDS011;11753;43.144;24.714;2023-04-27T05:23:48;42.50;;;26.55;;
23169;SDS011;11753;43.144;24.714;2023-04-27T05:24:49;11.32;;;7.20;;
23169;SDS011;11753;43.144;24.714;2023-04-27T05:25:51;10.13;;;5.90;;
23169;SDS011;11753;43.144;24.714;2023-04-27T05:26:52;41.40;;;25.02;;
23169;SDS011;11753;43.144;24.714;2023-04-27T05:27:54;27.85;;;18.63;;
23169;SDS011;11753;43.144;24.714;2023-04-27T05:28:55;8.13;;;3.47;;
23169;SDS011;11753;43.144;24.714;2023-04-27T05:29:55;15.95;;;6.15;;
23169;SDS011;11753;43.144;24.714;2023-04-27T05:30:56;8.63;;;5.63;;
23169;SDS011;11753;43.144;24.714;2023-04-27T05:31:56;11.50;;;5.78;;
23169;SDS011;11753;43.144;24.714;2023-04-27T05:32:57;11.55;;;6.03;;
23169;SDS011;11753;43.144;24.714;2023-04-27T05:33:58;7.05;;;3.75;;
23169;SDS011;11753;43.144;24.714;2023-04-27T05:34:59;27.00;;;12.70;;
23169;SDS011;11753;43.144;24.714;2023-04-27T05:36:00;11.25;;;4.80;;
23169;SDS011;11753;43.144;24.714;2023-04-27T05:37:01;6.85;;;2.97;;
23169;SDS011;11753;43.144;24.714;2023-04-27T05:38:02;16.00;;;6.32;;
23169;SDS011;11753;43.144;24.714;2023-04-27T05:39:03;8.15;;;3.40;;
23169;SDS011;11753;43.144;24.714;2023-04-27T05:40:05;6.25;;;3.58;;
23169;SDS011;11753;43.144;24.714;2023-04-27T05:41:08;11.18;;;4.78;;
23169;SDS011;11753;43.144;24.714;2023-04-27T05:42:09;9.10;;;4.68;;
23169;SDS011;11753;43.144;24.714;2023-04-27T05:43:10;8.75;;;3.90;;
23169;SDS011;11753;43.144;24.714;2023-04-27T05:44:11;17.77;;;10.88;;
23169;SDS011;11753;43.144;24.714;2023-04-27T05:45:12;7.20;;;3.50;;
23169;SDS011;11753;43.144;24.714;2023-04-27T05:46:13;10.25;;;4.47;;
23169;SDS011;11753;43.144;24.714;2023-04-27T05:47:14;8.98;;;5.97;;
23169;SDS011;11753;43.144;24.714;2023-04-27T05:48:16;6.18;;;4.53;;
23169;SDS011;11753;43.144;24.714;2023-04-27T05:49:17;9.10;;;4.03;;
23169;SDS011;11753;43.144;24.714;2023-04-27T05:50:18;8.73;;;3.50;;
23169;SDS011;11753;43.144;24.714;2023-04-27T05:51:19;7.38;;;3.15;;
23169;SDS011;11753;43.144;24.714;2023-04-27T05:52:20;10.25;;;4.20;;
23169;SDS011;11753;43.144;24.714;2023-04-27T05:53:21;9.35;;;3.92;;
23169;SDS011;11753;43.144;24.714;2023-04-27T05:54:22;9.02;;;3.67;;
23169;SDS011;11753;43.144;24.714;2023-04-27T05:55:23;8.63;;;3.97;;
23169;SDS011;11753;43.144;24.714;2023-04-27T05:56:24;8.02;;;3.70;;
23169;SDS011;11753;43.144;24.714;2023-04-27T05:57:25;10.00;;;3.30;;
23169;SDS011;11753;43.144;24.714;2023-04-27T05:58:26;7.65;;;3.30;;
23169;SDS011;11753;43.144;24.714;2023-04-27T05:59:27;10.00;;;3.80;;
23169;SDS011;11753;43.144;24.714;2023-04-27T06:00:28;9.50;;;3.70;;
23169;SDS011;11753;43.144;24.714;2023-04-27T06:01:29;11.68;;;4.28;;
23169;SDS011;11753;43.144;24.714;2023-04-27T06:02:30;11.93;;;3.97;;